Time;durP1;ratioP1;P1;durP2;ratioP2;P2;SDS_P1;SDS_P2;PMS_P1;PMS_P2;Temp;Humidity;BMP_temperature;BMP_pressure;BME280_temperature;BME280_humidity;BME280_pressure;Samples;Min_cycle;Max_cycle;Signal;HPM_P1;HPM_P2
2023/03/12 00:01:00;;;;;;;7.75;3.05;;;;;;;2.96;100.00;101065.81;5233568;28;20024;-75
2023/03/12 00:03:30;;;;;;;11.68;3.42;;;;;;;2.99;100.00;101062.94;5225854;28;20055;-75
2023/03/12 00:06:02;;;;;;;11.98;3.47;;;;;;;3.01;100.00;101061.88;5225773;28;20111;-74
2023/03/12 00:08:33;;;;;;;5.97;3.20;;;;;;;3.01;100.00;101053.94;5240305;28;20032;-75
2023/03/12 00:11:07;;;;;;;10.52;3.67;;;;;;;3.02;100.00;101044.19;5240348;28;20031;-75
2023/03/12 00:13:39;;;;;;;8.73;3.78;;;;;;;3.01;100.00;101039.81;5244047;28;20032;-75
2023/03/12 00:16:13;;;;;;;10.43;3.80;;;;;;;3.00;100.00;101032.81;5243393;28;20024;-75
2023/03/12 00:18:47;;;;;;;9.33;3.53;;;;;;;2.98;100.00;101035.59;5243482;28;20031;-75
2023/03/12 00:21:20;;;;;;;11.32;4.38;;;;;;;2.96;100.00;101034.88;5243520;28;20099;-75
2023/03/12 00:23:51;;;;;;;9.77;4.82;;;;;;;2.95;100.00;101037.63;5243940;28;20037;-75
2023/03/12 00:26:22;;;;;;;14.60;4.47;;;;;;;2.94;100.00;101025.34;5243142;28;20038;-74
2023/03/12 00:28:52;;;;;;;13.13;5.22;;;;;;;2.91;100.00;101028.19;5216656;28;20497;-74
2023/03/12 00:31:28;;;;;;;9.23;4.18;;;;;;;2.91;100.00;101026.38;5243245;28;20069;-75
2023/03/12 00:34:00;;;;;;;11.88;4.95;;;;;;;2.89;100.00;101035.41;5225362;28;20111;-75
2023/03/12 00:36:31;;;;;;;11.40;4.60;;;;;;;2.83;100.00;101037.56;5242962;28;20028;-75
2023/03/12 00:39:02;;;;;;;11.07;4.50;;;;;;;2.84;100.00;101027.81;5243385;28;20437;-75
2023/03/12 00:41:33;;;;;;;10.75;5.43;;;;;;;2.84;100.00;101031.31;5242993;28;20029;-74
2023/03/12 00:44:03;;;;;;;17.48;5.53;;;;;;;2.87;100.00;101029.41;5226022;28;20073;-75
2023/03/12 00:46:34;;;;;;;11.43;4.70;;;;;;;2.91;100.00;101028.19;5208932;28;20025;-75
2023/03/12 00:49:04;;;;;;;14.63;5.35;;;;;;;2.92;100.00;101024.59;5243707;28;20028;-75
2023/03/12 00:51:35;;;;;;;15.52;5.32;;;;;;;2.89;100.00;101023.03;5243338;28;20397;-74
2023/03/12 00:54:05;;;;;;;13.38;5.00;;;;;;;2.88;100.00;101017.84;5229942;28;20394;-75
2023/03/12 00:56:36;;;;;;;11.73;4.80;;;;;;;2.88;100.00;101016.03;5242942;28;20104;-75
2023/03/12 00:59:06;;;;;;;9.80;5.03;;;;;;;2.88;100.00;101012.53;5236451;28;20025;-75
2023/03/12 01:01:37;;;;;;;14.98;5.25;;;;;;;2.87;100.00;101010.84;5238670;28;20048;-75
2023/03/12 01:04:07;;;;;;;13.88;5.00;;;;;;;2.88;100.00;101008.09;5225570;28;20025;-74
2023/03/12 01:06:38;;;;;;;16.25;5.13;;;;;;;2.90;100.00;101002.66;5242676;28;20029;-75
2023/03/12 01:09:09;;;;;;;10.30;4.45;;;;;;;2.90;100.00;101000.00;5239724;28;20033;-75
2023/03/12 01:11:40;;;;;;;16.73;5.53;;;;;;;2.92;100.00;100998.09;5223035;28;20032;-74
2023/03/12 01:14:10;;;;;;;16.33;5.90;;;;;;;2.92;100.00;100993.66;5243382;28;20025;-75
2023/03/12 01:16:41;;;;;;;14.30;6.13;;;;;;;2.90;100.00;100992.06;5226897;28;20036;-75
2023/03/12 01:19:11;;;;;;;14.77;5.10;;;;;;;2.88;100.00;100997.47;5247074;28;20112;-75
2023/03/12 01:21:42;;;;;;;14.20;4.85;;;;;;;2.88;100.00;100994.00;5246721;28;20108;-74
2023/03/12 01:24:12;;;;;;;16.02;4.65;;;;;;;2.88;100.00;100996.63;5228943;28;20024;-75
2023/03/12 01:26:43;;;;;;;12.82;4.78;;;;;;;2.92;100.00;100995.47;5246453;28;20028;-75
2023/03/12 01:29:13;;;;;;;24.45;6.05;;;;;;;2.96;100.00;100994.25;5237706;28;20025;-75
2023/03/12 01:31:43;;;;;;;9.25;4.68;;;;;;;3.05;100.00;100996.22;5246552;28;20038;-75
2023/03/12 01:34:14;;;;;;;13.85;4.82;;;;;;;3.10;100.00;100994.06;5228746;28;20111;-75
2023/03/12 01:36:46;;;;;;;17.27;4.65;;;;;;;3.16;100.00;101001.56;5246077;28;20032;-75
2023/03/12 01:39:16;;;;;;;13.60;4.80;;;;;;;3.19;100.00;100993.38;5246411;28;20059;-75
2023/03/12 01:41:47;;;;;;;16.50;4.63;;;;;;;3.24;100.00;100985.09;5243639;28;20103;-75
2023/03/12 01:44:17;;;;;;;9.52;4.45;;;;;;;3.28;100.00;100973.31;5246569;28;20036;-75
2023/03/12 01:46:48;;;;;;;19.08;4.85;;;;;;;3.26;100.00;100957.53;5228095;28;20081;-75
2023/03/12 01:49:37;;;;;;;17.38;4.72;;;;;;;3.27;100.00;100955.72;5246621;28;20036;-74
2023/03/12 01:52:13;;;;;;;14.80;4.57;;;;;;;3.30;100.00;100955.44;5240795;28;20025;-75
2023/03/12 01:54:48;;;;;;;12.73;4.35;;;;;;;3.35;100.00;100956.78;5238620;28;20722;-75
2023/03/12 01:57:25;;;;;;;10.32;3.97;;;;;;;3.40;100.00;100958.25;5245548;28;20404;-75
2023/03/12 02:00:03;;;;;;;15.27;5.45;;;;;;;3.43;100.00;100952.72;5233847;28;20497;-75
2023/03/12 02:02:35;;;;;;;13.85;5.13;;;;;;;3.46;100.00;100941.84;5246075;28;20020;-75
2023/03/12 02:05:42;;;;;;;11.85;4.20;;;;;;;3.48;100.00;100945.25;5246166;28;20024;-75
2023/03/12 02:08:15;;;;;;;12.32;3.83;;;;;;;3.50;100.00;100949.47;5245412;28;20704;-75
2023/03/12 02:10:46;;;;;;;10.77;4.00;;;;;;;3.51;100.00;100937.88;5242122;28;20044;-74
2023/03/12 02:13:17;;;;;;;11.82;3.70;;;;;;;3.51;100.00;100939.69;5245606;28;20020;-75
2023/03/12 02:15:48;;;;;;;12.10;3.83;;;;;;;3.52;100.00;100930.81;5246373;28;20544;-75
2023/03/12 02:18:20;;;;;;;12.13;4.40;;;;;;;3.52;100.00;100933.47;5245481;28;20138;-75
2023/03/12 02:21:01;;;;;;;11.50;3.83;;;;;;;3.53;100.00;100940.44;5245990;28;20024;-75
2023/03/12 02:23:53;;;;;;;8.60;3.70;;;;;;;3.54;100.00;100942.13;5245625;28;20182;-74
2023/03/12 02:26:26;;;;;;;13.68;4.18;;;;;;;3.51;100.00;100932.59;5245318;28;20067;-75
2023/03/12 02:28:59;;;;;;;11.30;3.60;;;;;;;3.49;100.00;100920.41;5236684;28;20160;-75
2023/03/12 02:31:37;;;;;;;11.55;3.72;;;;;;;3.42;100.00;100925.38;5245527;28;20021;-74
2023/03/12 02:34:08;;;;;;;9.85;3.97;;;;;;;3.42;100.00;100932.47;5245640;28;20102;-74
2023/03/12 02:36:38;;;;;;;9.07;3.47;;;;;;;3.42;100.00;100927.16;5244996;28;20484;-75
2023/03/12 02:39:11;;;;;;;15.70;3.70;;;;;;;3.36;100.00;100924.03;5245449;28;20024;-75
2023/03/12 02:41:47;;;;;;;13.70;3.63;;;;;;;3.36;100.00;100933.75;5242006;28;20435;-75
2023/03/12 02:44:22;;;;;;;12.38;4.45;;;;;;;3.30;100.00;100913.88;5244922;28;20040;-75
2023/03/12 02:46:55;;;;;;;9.48;3.85;;;;;;;3.29;100.00;100924.59;5244964;28;20029;-75
2023/03/12 02:49:33;;;;;;;8.02;3.30;;;;;;;3.21;100.00;100922.53;5245211;28;20067;-75
2023/03/12 02:52:04;;;;;;;11.70;3.75;;;;;;;3.22;100.00;100910.97;5241220;28;20029;-75
2023/03/12 02:54:50;;;;;;;8.45;3.15;;;;;;;3.16;100.00;100884.06;5239525;28;20067;-72
2023/03/12 02:57:21;;;;;;;13.45;3.08;;;;;;;3.12;100.00;100883.50;5227236;28;20475;-75
2023/03/12 02:59:58;;;;;;;11.00;3.67;;;;;;;3.07;100.00;100890.94;5232900;28;20021;-74
2023/03/12 03:02:29;;;;;;;12.85;3.70;;;;;;;3.04;100.00;100899.13;5210913;28;20031;-74
2023/03/12 03:04:59;;;;;;;7.85;3.25;;;;;;;3.08;100.00;100906.72;5244439;28;20112;-75
2023/03/12 03:07:30;;;;;;;7.75;3.47;;;;;;;3.07;100.00;100906.84;5243941;28;20020;-74
2023/03/12 03:10:03;;;;;;;10.00;2.97;;;;;;;3.06;100.00;100910.44;5238162;28;20024;-74
2023/03/12 03:12:35;;;;;;;10.57;3.92;;;;;;;3.04;100.00;100910.56;5244900;28;20044;-75
2023/03/12 03:15:06;;;;;;;7.40;3.38;;;;;;;3.06;100.00;100902.47;5244967;28;20099;-75
2023/03/12 03:17:37;;;;;;;12.60;3.33;;;;;;;3.07;100.00;100899.75;5243910;28;20047;-74
2023/03/12 03:20:10;;;;;;;19.98;3.40;;;;;;;3.07;100.00;100904.19;5227336;28;20036;-74
2023/03/12 03:22:52;;;;;;;7.88;3.45;;;;;;;3.10;100.00;100890.69;5244885;28;20016;-75
2023/03/12 03:25:23;;;;;;;9.68;3.78;;;;;;;3.11;100.00;100895.91;5244714;28;20032;-74
2023/03/12 03:27:54;;;;;;;10.57;2.95;;;;;;;3.10;100.00;100886.22;5242826;28;20048;-74
2023/03/12 03:30:25;;;;;;;8.55;3.25;;;;;;;3.09;100.00;100873.94;5218107;28;20031;-75
2023/03/12 03:32:55;;;;;;;7.25;3.40;;;;;;;3.07;100.00;100859.13;5244327;28;20476;-74
2023/03/12 03:35:26;;;;;;;11.55;3.72;;;;;;;3.06;100.00;100862.72;5244870;28;20091;-74
2023/03/12 03:37:56;;;;;;;11.23;4.65;;;;;;;3.07;100.00;100854.69;5243269;28;20369;-74
2023/03/12 03:40:26;;;;;;;19.42;3.63;;;;;;;3.08;100.00;100859.00;5240150;28;20103;-74
2023/03/12 03:42:57;;;;;;;10.95;3.28;;;;;;;3.08;100.00;100859.00;5244435;28;20380;-75
2023/03/12 03:45:27;;;;;;;11.10;4.03;;;;;;;3.11;100.00;100856.13;5244318;28;20536;-74
2023/03/12 03:47:58;;;;;;;10.95;3.78;;;;;;;3.10;100.00;100841.16;5243766;28;20090;-74
2023/03/12 03:50:28;;;;;;;17.35;4.32;;;;;;;3.07;100.00;100849.38;5226152;28;20025;-74
2023/03/12 03:52:59;;;;;;;10.40;3.67;;;;;;;3.08;100.00;100858.16;5232311;28;20098;-75
2023/03/12 03:55:29;;;;;;;12.45;3.78;;;;;;;3.13;100.00;100871.06;5242361;28;20085;-74
2023/03/12 03:58:00;;;;;;;12.82;3.70;;;;;;;3.16;100.00;100865.50;5244029;28;20078;-74
2023/03/12 04:00:30;;;;;;;10.68;4.28;;;;;;;3.17;100.00;100864.56;5231676;28;20338;-74
2023/03/12 04:03:01;;;;;;;10.13;3.30;;;;;;;3.17;100.00;100862.78;5243838;28;20408;-75
2023/03/12 04:05:32;;;;;;;13.43;3.55;;;;;;;3.16;100.00;100852.25;5243902;28;20028;-74
2023/03/12 04:08:03;;;;;;;8.40;3.50;;;;;;;3.14;100.00;100844.44;5239908;28;20469;-75
2023/03/12 04:10:33;;;;;;;10.90;3.15;;;;;;;3.14;100.00;100851.53;5222789;28;20032;-75
2023/03/12 04:13:04;;;;;;;11.95;3.20;;;;;;;3.17;100.00;100853.97;5243878;28;20056;-75
2023/03/12 04:15:34;;;;;;;8.52;3.08;;;;;;;3.19;100.00;100858.19;5244306;28;20029;-75
2023/03/12 04:18:05;;;;;;;6.55;3.03;;;;;;;3.17;100.00;100851.31;5242720;28;20497;-75
2023/03/12 04:20:35;;;;;;;7.63;3.47;;;;;;;3.18;100.00;100843.25;5243959;28;20024;-75
2023/03/12 04:23:06;;;;;;;9.80;3.08;;;;;;;3.17;100.00;100853.97;5243715;28;20093;-75
2023/03/12 04:25:37;;;;;;;16.00;3.55;;;;;;;3.18;100.00;100842.41;5243972;28;20103;-74
2023/03/12 04:28:08;;;;;;;9.13;3.28;;;;;;;3.21;100.00;100840.34;5240758;28;20515;-75
2023/03/12 04:30:38;;;;;;;9.38;3.30;;;;;;;3.19;100.00;100850.22;5236819;28;20032;-74
2023/03/12 04:33:09;;;;;;;7.93;3.30;;;;;;;3.18;100.00;100845.06;5225942;28;20397;-75
2023/03/12 04:35:49;;;;;;;9.23;3.22;;;;;;;3.17;100.00;100838.91;5243916;28;20423;-75
2023/03/12 04:38:21;;;;;;;6.15;3.45;;;;;;;3.19;100.00;100830.81;5243362;28;20031;-75
2023/03/12 04:41:04;;;;;;;9.55;3.10;;;;;;;3.18;100.00;100840.59;5239508;28;20480;-74
2023/03/12 04:43:35;;;;;;;16.90;4.07;;;;;;;3.21;100.00;100842.97;5243523;28;20526;-74
2023/03/12 04:46:07;;;;;;;12.70;3.50;;;;;;;3.22;100.00;100842.03;5226012;28;20024;-74
2023/03/12 04:48:37;;;;;;;8.77;3.25;;;;;;;3.21;100.00;100829.72;5243183;28;20024;-75
2023/03/12 04:51:08;;;;;;;9.50;3.40;;;;;;;3.19;100.00;100818.41;5245336;28;20032;-74
2023/03/12 04:53:39;;;;;;;11.93;3.80;;;;;;;3.21;100.00;100812.97;5247124;28;20692;-75
2023/03/12 04:56:10;;;;;;;12.93;3.70;;;;;;;3.21;100.00;100807.69;5247749;28;20028;-74
2023/03/12 04:58:40;;;;;;;9.60;4.20;;;;;;;3.21;100.00;100805.03;5243744;28;20025;-75
2023/03/12 05:01:21;;;;;;;13.00;4.03;;;;;;;3.22;100.00;100804.94;5239911;28;20023;-74
2023/03/12 05:03:53;;;;;;;10.88;3.92;;;;;;;3.23;100.00;100796.00;5247155;28;20392;-74
2023/03/12 05:06:24;;;;;;;12.38;3.88;;;;;;;3.24;100.00;100787.09;5229029;28;20029;-74
2023/03/12 05:08:55;;;;;;;8.43;3.80;;;;;;;3.26;100.00;100789.59;5244410;28;20024;-75
2023/03/12 05:11:25;;;;;;;12.18;3.80;;;;;;;3.26;100.00;100790.47;5244133;28;20017;-74
2023/03/12 05:13:56;;;;;;;13.15;4.93;;;;;;;3.30;100.00;100791.91;5247298;28;20538;-74
2023/03/12 05:16:26;;;;;;;14.63;4.40;;;;;;;3.30;100.00;100794.53;5246296;28;20085;-75
2023/03/12 05:18:57;;;;;;;10.32;3.47;;;;;;;3.31;100.00;100793.59;5247379;28;20029;-75
2023/03/12 05:21:27;;;;;;;10.68;4.10;;;;;;;3.33;100.00;100786.38;5247175;28;20032;-75
2023/03/12 05:23:58;;;;;;;14.98;5.18;;;;;;;3.36;100.00;100786.13;5229094;28;20028;-74
2023/03/12 05:26:31;;;;;;;13.85;4.40;;;;;;;3.40;100.00;100788.53;5246712;28;20400;-74
2023/03/12 05:29:03;;;;;;;17.20;4.95;;;;;;;3.42;100.00;100789.25;5237949;28;20099;-75
2023/03/12 05:31:35;;;;;;;15.32;4.13;;;;;;;3.41;100.00;100785.75;5229046;28;20504;-73
2023/03/12 05:34:05;;;;;;;12.68;4.43;;;;;;;3.44;100.00;100785.50;5246693;28;20051;-73
2023/03/12 05:36:36;;;;;;;10.73;3.90;;;;;;;3.47;100.00;100798.53;5246680;28;20025;-74
2023/03/12 05:39:06;;;;;;;9.55;4.30;;;;;;;3.48;100.00;100796.72;5246370;28;20481;-74
2023/03/12 05:41:37;;;;;;;17.77;4.70;;;;;;;3.50;100.00;100797.44;5225695;28;20626;-74
2023/03/12 05:44:10;;;;;;;12.63;4.75;;;;;;;3.53;100.00;100807.81;5246589;28;20052;-74
2023/03/12 05:46:42;;;;;;;12.70;4.65;;;;;;;3.54;100.00;100796.22;5246681;28;20025;-73
2023/03/12 05:49:13;;;;;;;12.80;4.38;;;;;;;3.54;100.00;100798.88;5246588;28;20388;-73
2023/03/12 05:51:43;;;;;;;10.60;4.85;;;;;;;3.57;100.00;100807.44;5244953;28;20028;-73
2023/03/12 05:54:15;;;;;;;15.13;5.85;;;;;;;3.57;100.00;100802.16;5234585;28;20025;-73
2023/03/12 05:56:45;;;;;;;10.38;4.85;;;;;;;3.61;100.00;100794.75;5246780;28;20111;-75
2023/03/12 05:59:16;;;;;;;11.90;5.05;;;;;;;3.61;100.00;100798.28;5221149;28;20184;-75
2023/03/12 06:01:46;;;;;;;14.60;5.72;;;;;;;3.65;100.00;100798.88;5225162;28;20054;-75
2023/03/12 06:04:17;;;;;;;13.43;6.40;;;;;;;3.66;100.00;100797.88;5249952;28;20154;-75
2023/03/12 06:06:47;;;;;;;19.40;7.35;;;;;;;3.70;100.00;100802.00;5246721;28;20020;-75
2023/03/12 06:09:18;;;;;;;12.75;6.03;;;;;;;3.71;100.00;100795.72;5225787;28;20120;-76
2023/03/12 06:11:48;;;;;;;16.08;6.75;;;;;;;3.70;100.00;100794.03;5247081;28;20024;-76
2023/03/12 06:14:18;;;;;;;19.60;7.50;;;;;;;3.67;100.00;100790.81;5228689;28;20040;-76
2023/03/12 06:16:49;;;;;;;19.35;8.45;;;;;;;3.67;100.00;100793.47;5228206;28;20032;-74
2023/03/12 06:19:19;;;;;;;18.48;7.90;;;;;;;3.70;100.00;100798.50;5246786;28;20020;-76
2023/03/12 06:21:50;;;;;;;18.27;7.40;;;;;;;3.69;100.00;100792.34;5228534;28;20401;-76
2023/03/12 06:24:20;;;;;;;23.65;8.70;;;;;;;3.70;100.00;100785.22;5245764;28;20480;-77
2023/03/12 06:26:51;;;;;;;22.40;8.27;;;;;;;3.73;100.00;100788.50;5245906;28;20032;-77
2023/03/12 06:29:21;;;;;;;26.70;9.43;;;;;;;3.77;100.00;100784.63;5218412;28;20017;-77
2023/03/12 06:31:52;;;;;;;16.90;9.48;;;;;;;3.82;100.00;100781.59;5246161;28;20028;-77
2023/03/12 06:34:22;;;;;;;29.63;10.07;;;;;;;3.86;100.00;100790.97;5241921;28;20547;-75
2023/03/12 06:36:53;;;;;;;23.83;10.98;;;;;;;3.88;100.00;100787.25;5237007;28;20021;-75
2023/03/12 06:39:24;;;;;;;30.15;12.38;;;;;;;3.92;100.00;100779.88;5242401;28;20032;-75
2023/03/12 06:41:54;;;;;;;31.50;12.85;;;;;;;3.94;100.00;100777.94;5222138;28;20016;-75
2023/03/12 06:44:25;;;;;;;34.15;13.77;;;;;;;3.98;100.00;100782.03;5225989;28;20036;-74
2023/03/12 06:46:56;;;;;;;28.05;12.52;;;;;;;4.01;100.00;100781.75;5243081;28;20024;-75
2023/03/12 06:49:30;;;;;;;28.25;12.63;;;;;;;4.06;100.00;100786.69;5226102;28;20020;-74
2023/03/12 06:52:01;;;;;;;31.83;13.55;;;;;;;4.10;100.00;100786.31;5239663;28;20032;-75
2023/03/12 06:54:32;;;;;;;36.08;13.90;;;;;;;4.14;100.00;100790.41;5233921;28;20020;-75
2023/03/12 06:57:02;;;;;;;30.42;14.50;;;;;;;4.19;100.00;100795.34;5243082;28;20107;-76
2023/03/12 06:59:33;;;;;;;40.97;15.30;;;;;;;4.25;100.00;100794.84;5214910;28;20055;-76
2023/03/12 07:02:04;;;;;;;38.20;15.75;;;;;;;4.32;100.00;100803.16;5242060;28;20150;-76
2023/03/12 07:04:34;;;;;;;38.75;16.05;;;;;;;4.38;100.00;100798.19;5242655;28;20016;-74
2023/03/12 07:07:07;;;;;;;44.85;18.00;;;;;;;4.48;100.00;100795.59;5242816;28;20031;-75
2023/03/12 07:09:37;;;;;;;46.25;18.33;;;;;;;4.57;100.00;100799.31;5208803;28;20021;-75
2023/03/12 07:12:08;;;;;;;42.15;17.85;;;;;;;4.64;100.00;100795.16;5243847;28;20085;-76
2023/03/12 07:14:39;;;;;;;55.85;18.73;;;;;;;4.73;100.00;100802.34;5242125;28;20028;-75
2023/03/12 07:17:09;;;;;;;48.40;19.67;;;;;;;4.80;100.00;100792.88;5242229;28;20493;-76
2023/03/12 07:19:39;;;;;;;46.67;18.77;;;;;;;4.88;100.00;100792.25;5225631;28;20035;-76
2023/03/12 07:22:10;;;;;;;46.83;19.95;;;;;;;4.96;100.00;100797.72;5243556;28;20020;-76
2023/03/12 07:24:40;;;;;;;46.67;18.38;;;;;;;5.02;100.00;100799.88;5225138;28;20025;-76
2023/03/12 07:27:11;;;;;;;55.03;20.70;;;;;;;5.17;100.00;100800.34;5242958;28;20105;-75
2023/03/12 07:29:41;;;;;;;50.88;19.75;;;;;;;5.27;100.00;100811.91;5233185;28;20021;-75
2023/03/12 07:32:12;;;;;;;56.65;20.48;;;;;;;5.35;100.00;100809.41;5243212;28;20028;-75
2023/03/12 07:34:43;;;;;;;50.92;20.35;;;;;;;5.44;100.00;100810.44;5225206;28;20028;-76
2023/03/12 07:37:13;;;;;;;54.30;21.02;;;;;;;5.54;100.00;100808.66;5242453;28;20386;-74
2023/03/12 07:39:44;;;;;;;51.30;19.52;;;;;;;5.62;100.00;100814.16;5225308;28;20384;-75
2023/03/12 07:42:14;;;;;;;55.00;19.75;;;;;;;5.71;100.00;100817.78;5239467;28;20028;-75
2023/03/12 07:44:44;;;;;;;53.50;19.73;;;;;;;5.82;100.00;100819.50;5243089;28;20104;-76
2023/03/12 07:47:15;;;;;;;56.30;18.20;;;;;;;5.92;100.00;100804.44;5242126;28;20508;-76
2023/03/12 07:49:45;;;;;;;45.70;19.92;;;;;;;6.07;100.00;100812.88;5242852;28;20047;-76
2023/03/12 07:52:17;;;;;;;46.15;19.02;;;;;;;6.20;100.00;100824.94;5219172;28;20413;-76
2023/03/12 07:54:47;;;;;;;46.03;20.13;;;;;;;6.31;100.00;100823.97;5234926;28;20043;-76
2023/03/12 07:57:18;;;;;;;52.63;19.20;;;;;;;6.41;100.00;100830.16;5242080;28;20020;-74
2023/03/12 07:59:48;;;;;;;62.35;20.70;;;;;;;6.49;100.00;100829.47;5230684;28;20028;-75
2023/03/12 08:02:19;;;;;;;64.75;20.27;;;;;;;6.58;100.00;100827.78;5243014;28;20115;-75
2023/03/12 08:04:50;;;;;;;55.25;19.65;;;;;;;6.71;100.00;100847.81;5224571;28;20036;-74
2023/03/12 08:07:20;;;;;;;50.97;19.27;;;;;;;6.83;100.00;100842.31;5203194;28;20362;-76
2023/03/12 08:09:51;;;;;;;44.42;17.50;;;;;;;6.90;100.00;100854.13;5238676;28;20031;-76
2023/03/12 08:12:21;;;;;;;53.38;18.48;;;;;;;7.00;100.00;100855.78;5224639;28;20024;-75
2023/03/12 08:14:52;;;;;;;62.47;17.77;;;;;;;7.03;100.00;100853.81;5224195;28;20032;-76
2023/03/12 08:17:22;;;;;;;237.23;86.20;;;;;;;7.12;100.00;100855.63;5241761;28;20393;-74
2023/03/12 08:19:53;;;;;;;104.97;44.03;;;;;;;7.17;100.00;100856.03;5242142;28;20028;-76
2023/03/12 08:22:23;;;;;;;66.22;19.52;;;;;;;7.23;100.00;100861.66;5242690;28;20426;-76
2023/03/12 08:24:54;;;;;;;59.45;21.13;;;;;;;7.36;100.00;100865.81;5225823;28;20028;-76
2023/03/12 08:27:24;;;;;;;60.85;21.20;;;;;;;7.44;100.00;100869.47;5246235;28;20028;-75
2023/03/12 08:29:55;;;;;;;70.75;19.27;;;;;;;7.55;100.00;100871.09;5236943;28;20054;-76
2023/03/12 08:32:25;;;;;;;68.72;18.08;;;;;;;7.58;100.00;100878.84;5246329;28;20027;-76
2023/03/12 08:34:56;;;;;;;67.55;19.75;;;;;;;7.69;100.00;100884.00;5246402;28;20035;-76
2023/03/12 08:37:27;;;;;;;60.20;19.17;;;;;;;7.82;100.00;100872.13;5227785;28;20059;-75
2023/03/12 08:39:58;;;;;;;74.32;19.23;;;;;;;7.91;100.00;100880.09;5245748;28;20025;-76
2023/03/12 08:42:28;;;;;;;64.88;17.35;;;;;;;8.02;100.00;100882.56;5243037;28;20028;-75
2023/03/12 08:44:59;;;;;;;65.90;17.40;;;;;;;8.16;100.00;100883.06;5228187;28;20111;-76
2023/03/12 08:47:29;;;;;;;65.70;16.05;;;;;;;8.22;100.00;100887.78;5227934;28;20104;-75
2023/03/12 08:50:00;;;;;;;80.85;16.30;;;;;;;8.36;100.00;100884.66;5228425;28;20029;-77
2023/03/12 08:52:31;;;;;;;67.97;16.33;;;;;;;8.52;100.00;100884.81;5228876;28;20020;-76
2023/03/12 08:55:04;;;;;;;74.72;17.63;;;;;;;8.81;100.00;100891.78;5227141;28;20028;-76
2023/03/12 08:57:35;;;;;;;70.00;15.35;;;;;;;9.00;100.00;100896.13;5245780;28;20060;-76
2023/03/12 09:00:10;;;;;;;63.55;14.23;;;;;;;8.99;100.00;100895.28;5234008;28;20063;-75
2023/03/12 09:02:59;;;;;;;64.13;14.60;;;;;;;9.08;100.00;100896.16;5228267;28;20024;-76
2023/03/12 09:05:30;;;;;;;60.83;12.73;;;;;;;9.02;100.00;100896.78;5245164;28;20035;-77
2023/03/12 09:08:00;;;;;;;64.20;13.25;;;;;;;9.09;100.00;100903.22;5242680;28;20025;-77
2023/03/12 09:10:31;;;;;;;60.55;12.30;;;;;;;9.15;100.00;100894.56;5245738;28;20047;-76
2023/03/12 09:13:02;;;;;;;45.17;12.57;;;;;;;9.24;100.00;100898.16;5245630;28;20105;-75
2023/03/12 09:15:33;;;;;;;50.03;14.00;;;;;;;9.29;100.00;100906.56;5245461;28;20574;-76
2023/03/12 09:18:03;;;;;;;71.07;12.77;;;;;;;9.26;100.00;100896.13;5244376;28;20017;-75
2023/03/12 09:20:34;;;;;;;47.13;12.27;;;;;;;9.31;100.00;100901.88;5228153;28;20027;-75
2023/03/12 09:23:04;;;;;;;54.47;11.95;;;;;;;9.39;100.00;100895.72;5245583;28;20641;-76
2023/03/12 09:25:34;;;;;;;47.35;10.50;;;;;;;9.49;100.00;100904.50;5244991;28;20024;-76
2023/03/12 09:28:05;;;;;;;65.28;10.65;;;;;;;9.55;100.00;100899.34;5242351;28;20515;-76
2023/03/12 09:30:35;;;;;;;53.65;8.82;;;;;;;9.66;100.00;100914.31;5220643;28;20040;-75
2023/03/12 09:33:06;;;;;;;44.58;10.20;;;;;;;9.69;100.00;100914.00;5245234;28;20024;-76
2023/03/12 09:35:36;;;;;;;62.53;10.65;;;;;;;9.92;100.00;100910.75;5244380;28;20028;-76
2023/03/12 09:38:07;;;;;;;89.35;27.63;;;;;;;9.97;100.00;100914.63;5243915;28;20032;-76
2023/03/12 09:40:38;;;;;;;122.57;45.63;;;;;;;10.07;100.00;100925.22;5242236;28;20456;-76
2023/03/12 09:43:18;;;;;;;62.83;12.43;;;;;;;10.14;100.00;100918.25;5226868;28;20031;-76
2023/03/12 09:45:50;;;;;;;44.35;10.15;;;;;;;10.29;100.00;100910.41;5226630;28;20021;-76
2023/03/12 09:48:36;;;;;;;53.15;10.10;;;;;;;10.48;100.00;100915.50;5244390;28;20028;-76
2023/03/12 09:51:19;;;;;;;37.08;9.82;;;;;;;10.81;100.00;100913.72;5226723;28;20031;-75
2023/03/12 09:53:55;;;;;;;46.20;8.75;;;;;;;10.92;100.00;100914.41;5231456;28;20028;-76
2023/03/12 09:56:26;;;;;;;48.53;8.85;;;;;;;10.99;100.00;100918.94;5226749;28;20032;-76
2023/03/12 09:58:56;;;;;;;60.10;13.13;;;;;;;10.97;100.00;100918.28;5238958;28;20029;-76
2023/03/12 10:01:51;;;;;;;66.75;8.98;;;;;;;11.08;100.00;100917.94;5238234;28;20043;-76
2023/03/12 10:04:37;;;;;;;49.33;9.95;;;;;;;11.26;100.00;100920.47;5226780;28;20540;-75
2023/03/12 10:07:23;;;;;;;52.95;7.18;;;;;;;11.39;100.00;100922.63;5243969;28;20031;-76
2023/03/12 10:10:26;;;;;;;46.47;8.68;;;;;;;11.54;100.00;100928.13;5222820;28;20511;-75
2023/03/12 10:13:04;;;;;;;38.33;7.22;;;;;;;11.71;100.00;100920.91;5226285;28;20102;-76
2023/03/12 10:15:58;;;;;;;44.42;7.55;;;;;;;11.81;100.00;100924.22;5243954;28;20064;-76
2023/03/12 10:19:04;;;;;;;49.42;7.53;;;;;;;12.11;100.00;100922.66;5243980;28;20071;-76
2023/03/12 10:22:13;;;;;;;55.38;8.02;;;;;;;12.01;100.00;100913.94;5244138;28;20047;-76
2023/03/12 10:24:57;;;;;;;49.85;8.75;;;;;;;11.99;100.00;100911.41;5225476;28;20039;-76
2023/03/12 10:27:33;;;;;;;41.15;10.18;;;;;;;11.95;100.00;100904.72;5243384;28;20070;-76
2023/03/12 10:30:28;;;;;;;45.40;8.93;;;;;;;11.92;100.00;100900.53;5216545;28;20082;-76
2023/03/12 10:33:03;;;;;;;48.38;7.53;;;;;;;11.79;100.00;100900.19;5225604;28;20075;-75
2023/03/12 10:35:33;;;;;;;41.00;6.63;;;;;;;11.90;100.00;100902.56;5243322;28;20670;-76
2023/03/12 10:38:09;;;;;;;40.95;6.93;;;;;;;11.66;100.00;100902.59;5225551;28;20055;-76
2023/03/12 10:40:40;;;;;;;39.08;6.03;;;;;;;11.82;100.00;100904.44;5239570;28;20048;-77
2023/03/12 10:43:10;;;;;;;44.20;8.20;;;;;;;11.90;100.00;100913.31;5225956;28;20067;-77
2023/03/12 10:45:46;;;;;;;35.13;7.07;;;;;;;11.90;100.00;100910.63;5241448;28;20028;-77
2023/03/12 10:48:35;;;;;;;55.80;9.65;;;;;;;11.91;100.00;100928.44;5243624;28;20029;-77
2023/03/12 10:51:09;;;;;;;38.10;7.25;;;;;;;11.99;100.00;100924.84;5243396;28;20028;-77
2023/03/12 10:53:43;;;;;;;39.65;8.00;;;;;;;11.89;100.00;100925.06;5229717;28;20185;-77
2023/03/12 10:56:17;;;;;;;45.95;7.22;;;;;;;12.04;100.00;100925.16;5242761;28;20921;-77
2023/03/12 10:58:50;;;;;;;39.83;8.65;;;;;;;12.08;100.00;100917.59;5238805;28;20037;-76
2023/03/12 11:01:23;;;;;;;45.85;7.43;;;;;;;12.27;100.00;100906.44;5236140;28;20488;-76
2023/03/12 11:04:13;;;;;;;48.05;9.95;;;;;;;12.28;100.00;100913.47;5225993;28;20027;-77
2023/03/12 11:07:03;;;;;;;43.40;8.25;;;;;;;12.32;100.00;100927.44;5224599;28;20028;-77
2023/03/12 11:09:33;;;;;;;42.88;9.48;;;;;;;12.32;100.00;100924.72;5239769;28;20099;-76
2023/03/12 11:12:23;;;;;;;43.42;7.68;;;;;;;12.34;100.00;100925.38;5243476;28;20108;-77
2023/03/12 11:14:53;;;;;;;52.88;8.98;;;;;;;12.44;100.00;100920.63;5242468;28;20036;-77
2023/03/12 11:17:27;;;;;;;42.63;8.63;;;;;;;12.56;100.00;100930.00;5224725;28;20035;-77
2023/03/12 11:19:57;;;;;;;50.08;8.50;;;;;;;12.69;100.00;100924.00;5242968;28;20488;-77
2023/03/12 11:22:31;;;;;;;50.25;9.52;;;;;;;12.59;100.00;100921.53;5243305;28;20059;-77
2023/03/12 11:25:05;;;;;;;57.38;18.50;;;;;;;12.69;100.00;100924.84;5242003;28;20024;-76
2023/03/12 11:27:58;;;;;;;55.42;11.57;;;;;;;12.56;100.00;100926.47;5242259;28;20027;-76
2023/03/12 11:30:35;;;;;;;41.63;8.05;;;;;;;12.54;100.00;100926.63;5235796;28;20089;-76
2023/03/12 11:33:08;;;;;;;42.78;7.90;;;;;;;12.47;100.00;100924.84;5243591;28;20020;-75
2023/03/12 11:36:08;;;;;;;34.47;6.53;;;;;;;12.40;100.00;100924.72;5241840;28;20028;-76
2023/03/12 11:38:50;;;;;;;36.95;6.28;;;;;;;12.29;100.00;100922.38;5224475;28;20029;-76
2023/03/12 11:41:46;;;;;;;36.85;5.68;;;;;;;12.26;100.00;100928.97;5239601;28;20028;-76